Pagrindinis puslapis
METAR-TAF:

METAR-TAF

Oro uostai :

Asahikawa-airbase, Japonija

platuma: 43-48N, ilguma: 142-22E, Aukštis: 115 m

Dabartinis oras

Ataskaita buvo paskelbta 14 valandos ir 4 minutes, ne 22:42 UTC
Vėjas 3 kt nuo kintamojo kryptimis
Temperatūra -8°C
Drėgmė 92%
Slėgis 1021 hPa
Matomumas: 3000 m
Mažai debesys ne aukštis 500 ft
Apsiniaukę ne aukštis 900 ft
rūkana

METAR: RJCA 242242Z VRB03KT 3000 BR FEW005 OVC009 M08/M09 Q1021 RMK 1ST005 8ST009 A3016

Laikas: 21:46 (12:46 UTC)


TAF: trūkstamas

Orai ataskaitas ir orų prognozės (METAR, TAF).

turimą stotys yra geltonos ir raudonos taškus žemėlapyje.

Perkelti pele per norėdami pamatyti stoties vardą.

Tada spustelėkite, norėdami matyti oro stebėjimo ir prognozės.

Norėdami pakeisti žemėlapį: spustelėkite ant žalios mygtukų su juodo kryžiaus žemyn,; žalią mygtuką su brūkšneliu, jei norite nutolinti; arba žalių rodyklių gretimoms žemėlapius.


METAR-TAF: